Airfield :
LOGIN :

Register | Disclaimer

   EN    FR    IT 

 










Legend :    VFR   Marginal VFR   IFR   Intensive IFR   Very Intensive IFR
Visi :
Ceiling :
>= 8 km
>= 3000ft
5 to 8 km
1000 to 3000 ft
1500m to 5 km
500 to 1000 ft
800 to 1500m
200 to 500 ft
< 800m
< 200 ft
Symbols :   Thunderstorms  Fog  Heavy snow  Heavy precipitations  Wind > 20 kt
SIGMETs :     Misc.  Thunderstorms  Icing  Turbulence  Mountain Waves  Volcanic Ashes







- Airport Elevation : 245 ft
- IATA code : BIQ
- Download approach charts


LFBZ - Biarritz

CURRENT METAR :
  • 241530Z AUTO 29010KT 250V310 6000 OVC003 12/11 Q1025 TEMPO 3000 BR

EXPIRED METARs :
  • 241500Z AUTO 27009KT 5000 BR BKN003 13/11 Q1025 TEMPO BKN005
  • 241430Z AUTO 26009KT 230V290 6000 BKN003 14/12 Q1025 TEMPO BKN005
  • 241400Z AUTO 28009KT 240V300 8000 FEW005 SCT160 15/12 Q1025 TEMPO BKN005
  • 241330Z AUTO 29009KT 250V310 9999 FEW007 SCT160 15/12 Q1025 NOSIG
  • 241300Z AUTO 28008KT 250V310 CAVOK 15/12 Q1026 NOSIG

TAF AMD TAF LFBZ
Valid from the 24 at 15:00 until the 25 at 12:00 UTC


241504Z 2415/2512 30008KT CAVOK
PROB40 2415/2507 3000 BR BKN003
PROB30
TEMPO 2418/2420 0600 FG VV///
BECMG 2507/2509 BKN035
No reported NOTAMs for that airfield.



MET'MAP, your aeronautical weather chart ! - Copyright ORBIFLY December 2007 - Disclaimer

ORBIFLY MET'MAP TEAM :

Programming & Development : Alexandra Zaïnal
Concept & Development : Baudouin d'Aumeries
Co-Development & Prog : Marc-Olivier Méhu
Technical & hardware support : Manuel Goepfert

Contact : metmap@orbifly.com




SOURCES & CREDITS :

   NOAA